NOZ5VD LFMN-ENGM
Flight info
| Callsign | NOZ5VD |
|---|---|
| Flight time | 2h 27m |
| Altitude | 34000 |
| Route | IRMAR DCT KINES DCT VANAS DCT MOBLO DCT UBIMA DCT GILIR DCT PENDU/N0445F360 DCT UZCUX DCT SOSAD DCT OBOKA/N0437F350 DCT AMRAK/N0441F370 DCT SABAK/N0440F360 L997 LUNIP |
| Aircraft | B738/M-SDE2E3GHIJ1LRWXY/LB1 |
Departure
| Time | 2026-05-06 15:27 |
|---|---|
| Airport | Nice-Côte d'Azur Airport (LFMN) |
Arrival
| Time | 2026-05-06 17:55 |
|---|---|
| Airport | Oslo-Gardermoen International Airport (ENGM) |
| Time | Latitude | Longitude | Altitude | Speed | Heading |
|---|---|---|---|---|---|
| 2026-05-06 15:03 | 43.66435 | 7.21409 | 23 ft | 0 kts | 351° |
| 2026-05-06 15:19 | 43.66434 | 7.21409 | 21 ft | 2 kts | 351° |
| 2026-05-06 15:19 | 43.66409 | 7.21415 | 21 ft | 4 kts | 351° |
| 2026-05-06 15:19 | 43.66383 | 7.21420 | 23 ft | 4 kts | 360° |
| 2026-05-06 15:20 | 43.66359 | 7.21412 | 24 ft | 4 kts | 44° |
| 2026-05-06 15:20 | 43.66348 | 7.21386 | 25 ft | 1 kts | 81° |
| 2026-05-06 15:20 | 43.66347 | 7.21379 | 25 ft | 0 kts | 81° |
| 2026-05-06 15:23 | 43.66347 | 7.21380 | 25 ft | 1 kts | 81° |
| 2026-05-06 15:23 | 43.66349 | 7.21401 | 24 ft | 4 kts | 81° |
| 2026-05-06 15:23 | 43.66360 | 7.21459 | 24 ft | 8 kts | 57° |
| 2026-05-06 15:23 | 43.66363 | 7.21549 | 21 ft | 12 kts | 127° |
| 2026-05-06 15:24 | 43.66329 | 7.21657 | 21 ft | 14 kts | 64° |
| 2026-05-06 15:24 | 43.66408 | 7.21772 | 21 ft | 18 kts | 45° |
| 2026-05-06 15:24 | 43.66508 | 7.21911 | 21 ft | 22 kts | 44° |
| 2026-05-06 15:24 | 43.66550 | 7.22022 | 21 ft | 12 kts | 110° |
| 2026-05-06 15:25 | 43.66488 | 7.22118 | 21 ft | 14 kts | 135° |
| 2026-05-06 15:25 | 43.66413 | 7.22219 | 22 ft | 16 kts | 136° |
| 2026-05-06 15:25 | 43.66380 | 7.22367 | 23 ft | 19 kts | 60° |
| 2026-05-06 15:25 | 43.66480 | 7.22513 | 21 ft | 23 kts | 45° |
| 2026-05-06 15:26 | 43.66582 | 7.22662 | 21 ft | 14 kts | 67° |
| 2026-05-06 15:26 | 43.66585 | 7.22772 | 21 ft | 11 kts | 91° |
| 2026-05-06 15:26 | 43.66554 | 7.22820 | 22 ft | 6 kts | 172° |
| 2026-05-06 15:26 | 43.66520 | 7.22787 | 22 ft | 7 kts | 225° |
| 2026-05-06 15:27 | 43.66408 | 7.22635 | 21 ft | 52 kts | 225° |
| 2026-05-06 15:27 | 43.66001 | 7.22074 | 23 ft | 112 kts | 225° |
| 2026-05-06 15:27 | 43.65341 | 7.21162 | 65 ft | 155 kts | 225° |
| 2026-05-06 15:27 | 43.64586 | 7.20100 | 699 ft | 155 kts | 221° |
| 2026-05-06 15:28 | 43.63807 | 7.19055 | 1393 ft | 157 kts | 221° |
| 2026-05-06 15:28 | 43.63038 | 7.18014 | 2168 ft | 154 kts | 227° |
| 2026-05-06 15:28 | 43.62233 | 7.16926 | 2670 ft | 169 kts | 226° |
| 2026-05-06 15:28 | 43.61366 | 7.15820 | 3369 ft | 175 kts | 217° |
| 2026-05-06 15:29 | 43.60087 | 7.15393 | 3608 ft | 212 kts | 178° |
| 2026-05-06 15:29 | 43.58612 | 7.16057 | 4032 ft | 232 kts | 159° |
| 2026-05-06 15:29 | 43.57200 | 7.17184 | 4616 ft | 238 kts | 145° |
| 2026-05-06 15:29 | 43.56231 | 7.19044 | 5220 ft | 244 kts | 107° |
| 2026-05-06 15:30 | 43.56172 | 7.21381 | 5768 ft | 250 kts | 73° |
| 2026-05-06 15:30 | 43.56695 | 7.23696 | 6372 ft | 256 kts | 70° |
| 2026-05-06 15:30 | 43.57290 | 7.26064 | 6887 ft | 265 kts | 63° |
| 2026-05-06 15:30 | 43.58374 | 7.27991 | 7646 ft | 254 kts | 32° |
| 2026-05-06 15:31 | 43.59963 | 7.28940 | 8279 ft | 250 kts | 3° |
| 2026-05-06 15:31 | 43.61723 | 7.28796 | 8517 ft | 262 kts | 339° |
| 2026-05-06 15:31 | 43.63439 | 7.27748 | 8845 ft | 276 kts | 328° |
| 2026-05-06 15:32 | 43.66901 | 7.25124 | 10178 ft | 292 kts | 327° |
| 2026-05-06 15:32 | 43.68747 | 7.23697 | 10382 ft | 317 kts | 327° |
| 2026-05-06 15:32 | 43.70727 | 7.22175 | 10835 ft | 330 kts | 327° |
| 2026-05-06 15:32 | 43.72751 | 7.20633 | 11557 ft | 334 kts | 328° |
| 2026-05-06 15:33 | 43.74802 | 7.19080 | 12361 ft | 337 kts | 327° |
| 2026-05-06 15:33 | 43.76874 | 7.17514 | 13131 ft | 341 kts | 327° |
| 2026-05-06 15:33 | 43.78971 | 7.15930 | 13845 ft | 346 kts | 327° |
| 2026-05-06 15:33 | 43.81092 | 7.14328 | 14509 ft | 349 kts | 327° |
| 2026-05-06 15:34 | 43.83236 | 7.12707 | 15263 ft | 350 kts | 327° |
| 2026-05-06 15:34 | 43.85376 | 7.11089 | 15941 ft | 354 kts | 325° |
| 2026-05-06 15:34 | 43.87555 | 7.09437 | 16523 ft | 360 kts | 326° |
| 2026-05-06 15:34 | 43.89780 | 7.07784 | 17184 ft | 364 kts | 326° |
| 2026-05-06 15:35 | 43.92014 | 7.06089 | 17882 ft | 367 kts | 326° |
| 2026-05-06 15:35 | 43.94267 | 7.04368 | 18510 ft | 370 kts | 324° |
| 2026-05-06 15:35 | 43.96504 | 7.02658 | 19099 ft | 374 kts | 324° |
| 2026-05-06 15:35 | 43.98833 | 7.00880 | 19593 ft | 381 kts | 324° |
| 2026-05-06 15:36 | 44.01137 | 6.99124 | 20144 ft | 385 kts | 324° |
| 2026-05-06 15:36 | 44.03490 | 6.97331 | 20759 ft | 388 kts | 323° |
| 2026-05-06 15:36 | 44.05862 | 6.95514 | 21220 ft | 391 kts | 323° |
| 2026-05-06 15:36 | 44.08268 | 6.93685 | 21630 ft | 397 kts | 323° |
| 2026-05-06 15:37 | 44.10705 | 6.91828 | 22120 ft | 401 kts | 322° |
| 2026-05-06 15:37 | 44.13165 | 6.89958 | 22706 ft | 405 kts | 324° |
| 2026-05-06 15:37 | 44.15889 | 6.88629 | 23116 ft | 430 kts | 344° |
| 2026-05-06 15:37 | 44.18898 | 6.88162 | 23615 ft | 437 kts | 346° |
| 2026-05-06 15:38 | 44.21937 | 6.87747 | 24016 ft | 440 kts | 347° |
| 2026-05-06 15:38 | 44.25004 | 6.87327 | 24377 ft | 443 kts | 347° |
| 2026-05-06 15:38 | 44.28083 | 6.86905 | 24678 ft | 447 kts | 347° |
| 2026-05-06 15:38 | 44.31189 | 6.86465 | 25117 ft | 448 kts | 346° |
| 2026-05-06 15:39 | 44.34250 | 6.86015 | 25554 ft | 449 kts | 346° |
| 2026-05-06 15:39 | 44.37370 | 6.85544 | 25936 ft | 453 kts | 346° |
| 2026-05-06 15:39 | 44.40523 | 6.85064 | 26305 ft | 457 kts | 346° |
| 2026-05-06 15:39 | 44.43697 | 6.84580 | 26670 ft | 460 kts | 346° |
| 2026-05-06 15:40 | 44.46888 | 6.84090 | 27149 ft | 460 kts | 347° |
| 2026-05-06 15:40 | 44.50066 | 6.83605 | 27710 ft | 459 kts | 346° |
| 2026-05-06 15:40 | 44.53260 | 6.83115 | 28052 ft | 463 kts | 346° |
| 2026-05-06 15:40 | 44.56484 | 6.82618 | 28338 ft | 468 kts | 346° |
| 2026-05-06 15:41 | 44.59736 | 6.82116 | 28668 ft | 471 kts | 347° |
| 2026-05-06 15:41 | 44.62968 | 6.81620 | 29051 ft | 473 kts | 347° |
| 2026-05-06 15:41 | 44.66289 | 6.81111 | 29453 ft | 476 kts | 347° |
| 2026-05-06 15:41 | 44.69553 | 6.80609 | 29748 ft | 479 kts | 347° |
| 2026-05-06 15:42 | 44.72880 | 6.80097 | 30002 ft | 483 kts | 347° |
| 2026-05-06 15:42 | 44.76234 | 6.79586 | 30253 ft | 485 kts | 347° |
| 2026-05-06 15:42 | 44.79589 | 6.79070 | 30573 ft | 485 kts | 347° |
| 2026-05-06 15:42 | 44.82951 | 6.78658 | 30860 ft | 489 kts | 350° |
| 2026-05-06 15:43 | 44.85201 | 6.78481 | 30999 ft | 491 kts | 351° |
| 2026-05-06 15:43 | 44.88625 | 6.78284 | 31208 ft | 494 kts | 352° |
| 2026-05-06 15:43 | 44.92057 | 6.78118 | 31503 ft | 494 kts | 352° |
| 2026-05-06 15:43 | 44.95487 | 6.77946 | 31886 ft | 491 kts | 352° |
| 2026-05-06 15:44 | 44.98894 | 6.77756 | 32234 ft | 489 kts | 352° |
| 2026-05-06 15:44 | 45.02287 | 6.77547 | 32564 ft | 488 kts | 352° |
| 2026-05-06 15:44 | 45.05679 | 6.77327 | 32859 ft | 488 kts | 352° |
| 2026-05-06 15:44 | 45.09065 | 6.77101 | 33174 ft | 487 kts | 352° |
| 2026-05-06 15:45 | 45.12447 | 6.76874 | 33500 ft | 486 kts | 352° |
| 2026-05-06 15:45 | 45.15828 | 6.76648 | 33893 ft | 485 kts | 352° |
| 2026-05-06 15:45 | 45.19188 | 6.76422 | 34214 ft | 483 kts | 352° |
| 2026-05-06 15:45 | 45.22549 | 6.76197 | 34422 ft | 484 kts | 352° |
| 2026-05-06 15:46 | 45.25912 | 6.75976 | 34627 ft | 484 kts | 353° |
| 2026-05-06 15:46 | 45.29280 | 6.75754 | 34889 ft | 483 kts | 352° |
| 2026-05-06 15:46 | 45.32626 | 6.75532 | 35165 ft | 481 kts | 352° |
| 2026-05-06 15:46 | 45.35975 | 6.75315 | 35405 ft | 481 kts | 353° |
| 2026-05-06 15:47 | 45.39322 | 6.75103 | 35595 ft | 482 kts | 353° |
| 2026-05-06 15:47 | 45.42668 | 6.74892 | 35830 ft | 481 kts | 353° |
| 2026-05-06 15:47 | 45.46017 | 6.74681 | 36072 ft | 480 kts | 353° |
| 2026-05-06 15:47 | 45.49342 | 6.74463 | 36326 ft | 479 kts | 353° |
| 2026-05-06 15:48 | 45.52670 | 6.74237 | 36536 ft | 479 kts | 353° |
| 2026-05-06 15:48 | 45.55951 | 6.74012 | 36743 ft | 477 kts | 352° |
| 2026-05-06 15:48 | 45.59262 | 6.73785 | 36979 ft | 476 kts | 353° |
| 2026-05-06 15:48 | 45.62577 | 6.73558 | 37150 ft | 476 kts | 353° |
| 2026-05-06 15:49 | 45.65890 | 6.73332 | 37307 ft | 477 kts | 353° |
| 2026-05-06 15:49 | 45.69198 | 6.73105 | 37661 ft | 474 kts | 353° |
| 2026-05-06 15:49 | 45.72490 | 6.72875 | 37891 ft | 474 kts | 353° |
| 2026-05-06 15:49 | 45.75794 | 6.72657 | 37935 ft | 476 kts | 353° |
| 2026-05-06 15:50 | 45.82435 | 6.72202 | 37936 ft | 478 kts | 353° |
| 2026-05-06 15:50 | 45.89060 | 6.71743 | 37953 ft | 474 kts | 353° |
| 2026-05-06 15:51 | 45.95643 | 6.71285 | 37940 ft | 472 kts | 353° |
| 2026-05-06 15:51 | 46.02157 | 6.70831 | 37947 ft | 470 kts | 354° |
| 2026-05-06 15:52 | 46.08680 | 6.70375 | 37933 ft | 468 kts | 354° |
| 2026-05-06 15:52 | 46.15083 | 6.69088 | 37914 ft | 461 kts | 338° |
| 2026-05-06 15:53 | 46.21150 | 6.66118 | 37929 ft | 463 kts | 336° |
| 2026-05-06 15:53 | 46.27267 | 6.63026 | 37943 ft | 468 kts | 337° |
| 2026-05-06 15:54 | 46.33475 | 6.59949 | 37930 ft | 472 kts | 337° |
| 2026-05-06 15:54 | 46.39717 | 6.56896 | 37913 ft | 475 kts | 337° |
| 2026-05-06 15:55 | 46.45978 | 6.53835 | 37931 ft | 475 kts | 337° |
| 2026-05-06 15:55 | 46.52244 | 6.50762 | 37910 ft | 475 kts | 337° |
| 2026-05-06 15:56 | 46.58496 | 6.47686 | 37910 ft | 474 kts | 337° |
| 2026-05-06 15:56 | 46.64729 | 6.44610 | 37905 ft | 472 kts | 338° |
| 2026-05-06 15:57 | 46.70889 | 6.41563 | 37903 ft | 469 kts | 338° |
| 2026-05-06 15:57 | 46.77045 | 6.38511 | 37901 ft | 467 kts | 338° |
| 2026-05-06 15:58 | 46.83183 | 6.35459 | 37894 ft | 465 kts | 338° |
| 2026-05-06 15:58 | 46.89296 | 6.32414 | 37900 ft | 463 kts | 338° |
| 2026-05-06 15:59 | 46.95392 | 6.29369 | 37902 ft | 462 kts | 337° |
| 2026-05-06 15:59 | 47.01472 | 6.26324 | 37906 ft | 462 kts | 338° |
| 2026-05-06 16:00 | 47.07527 | 6.23171 | 37889 ft | 460 kts | 332° |
| 2026-05-06 16:00 | 47.13236 | 6.19109 | 37899 ft | 459 kts | 329° |
| 2026-05-06 16:01 | 47.18938 | 6.14852 | 37894 ft | 460 kts | 330° |
| 2026-05-06 16:01 | 47.24702 | 6.10667 | 37891 ft | 462 kts | 330° |
| 2026-05-06 16:02 | 47.30486 | 6.06502 | 37884 ft | 463 kts | 332° |
| 2026-05-06 16:02 | 47.33539 | 6.04939 | 37857 ft | 469 kts | 347° |
| 2026-05-06 16:02 | 47.36799 | 6.04557 | 37887 ft | 473 kts | 1° |
| 2026-05-06 16:03 | 47.40048 | 6.05329 | 37878 ft | 476 kts | 15° |
| 2026-05-06 16:03 | 47.43216 | 6.06765 | 37888 ft | 476 kts | 16° |
| 2026-05-06 16:03 | 47.49538 | 6.09765 | 37877 ft | 477 kts | 17° |
| 2026-05-06 16:04 | 47.55869 | 6.12725 | 37860 ft | 478 kts | 16° |
| 2026-05-06 16:04 | 47.62186 | 6.15612 | 37872 ft | 479 kts | 15° |
| 2026-05-06 16:05 | 47.68593 | 6.18519 | 37864 ft | 483 kts | 16° |
| 2026-05-06 16:05 | 47.74945 | 6.21409 | 37848 ft | 472 kts | 16° |
| 2026-05-06 16:06 | 47.81210 | 6.24269 | 37885 ft | 471 kts | 16° |
| 2026-05-06 16:06 | 47.87480 | 6.27138 | 37892 ft | 472 kts | 16° |
| 2026-05-06 16:07 | 47.93773 | 6.30026 | 37875 ft | 474 kts | 16° |
| 2026-05-06 16:07 | 48.00088 | 6.32932 | 37877 ft | 475 kts | 16° |
| 2026-05-06 16:08 | 48.06424 | 6.35856 | 37857 ft | 478 kts | 16° |
| 2026-05-06 16:08 | 48.12770 | 6.38790 | 37862 ft | 477 kts | 16° |
| 2026-05-06 16:09 | 48.19103 | 6.41726 | 37854 ft | 476 kts | 16° |
| 2026-05-06 16:09 | 48.25375 | 6.44643 | 37855 ft | 474 kts | 16° |
| 2026-05-06 16:10 | 48.31675 | 6.47579 | 37865 ft | 475 kts | 16° |
| 2026-05-06 16:10 | 48.37989 | 6.50529 | 37850 ft | 475 kts | 16° |
| 2026-05-06 16:11 | 48.44296 | 6.53485 | 37860 ft | 474 kts | 16° |
| 2026-05-06 16:11 | 48.50587 | 6.56440 | 37856 ft | 473 kts | 16° |
| 2026-05-06 16:12 | 48.56865 | 6.59397 | 37842 ft | 473 kts | 16° |
| 2026-05-06 16:12 | 48.63145 | 6.62362 | 37839 ft | 472 kts | 16° |
| 2026-05-06 16:13 | 48.69412 | 6.65329 | 37839 ft | 472 kts | 16° |
| 2026-05-06 16:13 | 48.75679 | 6.68304 | 37831 ft | 472 kts | 16° |
| 2026-05-06 16:14 | 48.81948 | 6.71287 | 37837 ft | 472 kts | 16° |
| 2026-05-06 16:14 | 48.88219 | 6.74280 | 37842 ft | 472 kts | 16° |
| 2026-05-06 16:15 | 48.94492 | 6.77281 | 37830 ft | 473 kts | 17° |
| 2026-05-06 16:15 | 49.00778 | 6.80296 | 37852 ft | 475 kts | 17° |
| 2026-05-06 16:16 | 49.07117 | 6.83344 | 37845 ft | 480 kts | 17° |
| 2026-05-06 16:16 | 49.13502 | 6.86427 | 37809 ft | 481 kts | 17° |
| 2026-05-06 16:17 | 49.19824 | 6.89483 | 37814 ft | 472 kts | 17° |
| 2026-05-06 16:17 | 49.26059 | 6.92516 | 37822 ft | 470 kts | 17° |
| 2026-05-06 16:18 | 49.32336 | 6.95228 | 37816 ft | 468 kts | 9° |
| 2026-05-06 16:18 | 49.38749 | 6.96914 | 37811 ft | 468 kts | 7° |
| 2026-05-06 16:19 | 49.45135 | 6.98466 | 37806 ft | 468 kts | 8° |
| 2026-05-06 16:19 | 49.51574 | 7.00113 | 37800 ft | 470 kts | 8° |
| 2026-05-06 16:20 | 49.58027 | 7.01826 | 37818 ft | 472 kts | 8° |
| 2026-05-06 16:20 | 49.64523 | 7.03572 | 37796 ft | 475 kts | 8° |
| 2026-05-06 16:21 | 49.71034 | 7.05327 | 37798 ft | 476 kts | 8° |
| 2026-05-06 16:21 | 49.77572 | 7.07090 | 37816 ft | 477 kts | 8° |
| 2026-05-06 16:22 | 49.84119 | 7.08860 | 37798 ft | 478 kts | 8° |
| 2026-05-06 16:22 | 49.90664 | 7.10634 | 37798 ft | 477 kts | 8° |
| 2026-05-06 16:23 | 49.97192 | 7.12408 | 37828 ft | 476 kts | 8° |
| 2026-05-06 16:23 | 50.03703 | 7.14182 | 37825 ft | 475 kts | 8° |
| 2026-05-06 16:24 | 50.10206 | 7.15960 | 37799 ft | 473 kts | 8° |
| 2026-05-06 16:24 | 50.16685 | 7.17736 | 37805 ft | 472 kts | 8° |
| 2026-05-06 16:25 | 50.23148 | 7.19511 | 37801 ft | 471 kts | 8° |
| 2026-05-06 16:25 | 50.29599 | 7.21289 | 37804 ft | 470 kts | 8° |
| 2026-05-06 16:26 | 50.36037 | 7.23068 | 37813 ft | 469 kts | 8° |
| 2026-05-06 16:26 | 50.42453 | 7.24846 | 37822 ft | 468 kts | 9° |
| 2026-05-06 16:27 | 50.48867 | 7.26627 | 37811 ft | 468 kts | 9° |
| 2026-05-06 16:27 | 50.55287 | 7.28416 | 37826 ft | 469 kts | 9° |
| 2026-05-06 16:28 | 50.61679 | 7.30202 | 37828 ft | 471 kts | 9° |
| 2026-05-06 16:28 | 50.68139 | 7.32012 | 37847 ft | 472 kts | 8° |
| 2026-05-06 16:29 | 50.74619 | 7.33871 | 37857 ft | 474 kts | 11° |
| 2026-05-06 16:29 | 50.80945 | 7.36938 | 37850 ft | 477 kts | 18° |
| 2026-05-06 16:30 | 50.85140 | 7.39295 | 37851 ft | 479 kts | 19° |
| 2026-05-06 16:30 | 50.93498 | 7.43990 | 37845 ft | 479 kts | 18° |
| 2026-05-06 16:31 | 50.99793 | 7.47438 | 37838 ft | 478 kts | 18° |
| 2026-05-06 16:31 | 51.05020 | 7.50276 | 37839 ft | 478 kts | 18° |
| 2026-05-06 16:32 | 51.11308 | 7.53691 | 37709 ft | 476 kts | 17° |
| 2026-05-06 16:32 | 51.17538 | 7.57087 | 37822 ft | 472 kts | 17° |
| 2026-05-06 16:33 | 51.23732 | 7.60476 | 37830 ft | 471 kts | 17° |
| 2026-05-06 16:34 | 51.33028 | 7.65582 | 37859 ft | 470 kts | 17° |
| 2026-05-06 16:34 | 51.39197 | 7.68983 | 37853 ft | 469 kts | 17° |
| 2026-05-06 16:35 | 51.45376 | 7.72398 | 37847 ft | 470 kts | 17° |
| 2026-05-06 16:35 | 51.51559 | 7.75825 | 37864 ft | 470 kts | 17° |
| 2026-05-06 16:36 | 51.57748 | 7.79265 | 37865 ft | 471 kts | 17° |
| 2026-05-06 16:36 | 51.63942 | 7.82719 | 37853 ft | 472 kts | 17° |
| 2026-05-06 16:37 | 51.70152 | 7.86192 | 37844 ft | 472 kts | 17° |
| 2026-05-06 16:37 | 51.76375 | 7.89682 | 37849 ft | 473 kts | 17° |
| 2026-05-06 16:38 | 51.82605 | 7.93186 | 37841 ft | 475 kts | 17° |
| 2026-05-06 16:38 | 51.88804 | 7.96683 | 37845 ft | 475 kts | 17° |
| 2026-05-06 16:39 | 51.95041 | 8.00212 | 37832 ft | 474 kts | 17° |
| 2026-05-06 16:39 | 52.01263 | 8.03743 | 37863 ft | 473 kts | 17° |
| 2026-05-06 16:40 | 52.07478 | 8.07280 | 37871 ft | 472 kts | 17° |
| 2026-05-06 16:40 | 52.13680 | 8.10820 | 37857 ft | 472 kts | 17° |
| 2026-05-06 16:41 | 52.19880 | 8.14369 | 37863 ft | 472 kts | 17° |
| 2026-05-06 16:41 | 52.26085 | 8.17932 | 37866 ft | 472 kts | 17° |
| 2026-05-06 16:42 | 52.32233 | 8.21473 | 37840 ft | 470 kts | 17° |
| 2026-05-06 16:42 | 52.38391 | 8.25031 | 37855 ft | 468 kts | 17° |
| 2026-05-06 16:43 | 52.44526 | 8.28585 | 37868 ft | 467 kts | 17° |
| 2026-05-06 16:43 | 52.50648 | 8.32141 | 37869 ft | 468 kts | 17° |
| 2026-05-06 16:44 | 52.56803 | 8.35726 | 37867 ft | 469 kts | 17° |
| 2026-05-06 16:44 | 52.62954 | 8.39322 | 37855 ft | 469 kts | 17° |
| 2026-05-06 16:45 | 52.69086 | 8.42918 | 37868 ft | 467 kts | 17° |
| 2026-05-06 16:45 | 52.75199 | 8.46513 | 37872 ft | 466 kts | 17° |
| 2026-05-06 16:46 | 52.81300 | 8.50110 | 37877 ft | 465 kts | 17° |
| 2026-05-06 16:46 | 52.87398 | 8.53716 | 37881 ft | 465 kts | 17° |
| 2026-05-06 16:47 | 52.93501 | 8.57337 | 37876 ft | 466 kts | 17° |
| 2026-05-06 16:47 | 52.99608 | 8.60971 | 37889 ft | 467 kts | 17° |
| 2026-05-06 16:48 | 53.05724 | 8.64621 | 37878 ft | 467 kts | 17° |
| 2026-05-06 16:48 | 53.11848 | 8.68287 | 37887 ft | 468 kts | 17° |
| 2026-05-06 16:49 | 53.17979 | 8.71969 | 37876 ft | 468 kts | 17° |
| 2026-05-06 16:49 | 53.24113 | 8.75663 | 37888 ft | 469 kts | 17° |
| 2026-05-06 16:50 | 53.30253 | 8.79373 | 37882 ft | 470 kts | 17° |
| 2026-05-06 16:50 | 53.36406 | 8.83102 | 37884 ft | 470 kts | 17° |
| 2026-05-06 16:51 | 53.42519 | 8.86818 | 38084 ft | 471 kts | 18° |
| 2026-05-06 16:51 | 53.48707 | 8.90589 | 37926 ft | 474 kts | 18° |
| 2026-05-06 16:52 | 53.54915 | 8.94386 | 37892 ft | 475 kts | 18° |
| 2026-05-06 16:52 | 53.61122 | 8.98196 | 37881 ft | 474 kts | 18° |
| 2026-05-06 16:53 | 53.67307 | 9.02003 | 37895 ft | 473 kts | 18° |
| 2026-05-06 16:53 | 53.73496 | 9.05825 | 37882 ft | 472 kts | 18° |
| 2026-05-06 16:54 | 53.79651 | 9.09637 | 37881 ft | 470 kts | 18° |
| 2026-05-06 16:54 | 53.85795 | 9.13454 | 37881 ft | 469 kts | 18° |
| 2026-05-06 16:55 | 53.91915 | 9.17268 | 37887 ft | 468 kts | 18° |
| 2026-05-06 16:55 | 53.98034 | 9.21094 | 37881 ft | 468 kts | 18° |
| 2026-05-06 16:56 | 54.04143 | 9.24925 | 37885 ft | 468 kts | 18° |
| 2026-05-06 16:56 | 54.10251 | 9.28768 | 37880 ft | 468 kts | 18° |
| 2026-05-06 16:57 | 54.16374 | 9.32632 | 37887 ft | 469 kts | 18° |
| 2026-05-06 16:57 | 54.22469 | 9.36491 | 37893 ft | 470 kts | 18° |
| 2026-05-06 16:58 | 54.28608 | 9.40390 | 37884 ft | 471 kts | 18° |
| 2026-05-06 16:58 | 54.34764 | 9.44312 | 37889 ft | 472 kts | 18° |
| 2026-05-06 16:59 | 54.40920 | 9.48247 | 37926 ft | 473 kts | 18° |
| 2026-05-06 16:59 | 54.47098 | 9.52209 | 37914 ft | 474 kts | 18° |
| 2026-05-06 17:00 | 54.53273 | 9.56182 | 37909 ft | 474 kts | 18° |
| 2026-05-06 17:00 | 54.59450 | 9.60169 | 37912 ft | 474 kts | 18° |
| 2026-05-06 17:01 | 54.65630 | 9.64171 | 37922 ft | 474 kts | 18° |
| 2026-05-06 17:01 | 54.71775 | 9.68164 | 37908 ft | 475 kts | 18° |
| 2026-05-06 17:02 | 54.77958 | 9.72194 | 37910 ft | 474 kts | 18° |
| 2026-05-06 17:02 | 54.84147 | 9.76136 | 37908 ft | 473 kts | 15° |
| 2026-05-06 17:03 | 54.90428 | 9.79451 | 37921 ft | 471 kts | 13° |
| 2026-05-06 17:03 | 54.96731 | 9.82586 | 37911 ft | 471 kts | 13° |
| 2026-05-06 17:04 | 55.03010 | 9.85770 | 37912 ft | 470 kts | 14° |
| 2026-05-06 17:04 | 55.09288 | 9.89021 | 37912 ft | 470 kts | 14° |
| 2026-05-06 17:05 | 55.15548 | 9.92295 | 37920 ft | 469 kts | 14° |
| 2026-05-06 17:05 | 55.21824 | 9.95465 | 41770 ft | 472 kts | 12° |
| 2026-05-06 17:05 | 55.25121 | 9.97069 | 39497 ft | 516 kts | 13° |
| 2026-05-06 17:06 | 55.28586 | 9.98866 | 38603 ft | 517 kts | 14° |
| 2026-05-06 17:06 | 55.31972 | 10.00706 | 38127 ft | 500 kts | 15° |
| 2026-05-06 17:06 | 55.35239 | 10.02526 | 37940 ft | 487 kts | 15° |
| 2026-05-06 17:06 | 55.38427 | 10.04293 | 37929 ft | 472 kts | 14° |
| 2026-05-06 17:07 | 55.41486 | 10.05965 | 37914 ft | 463 kts | 14° |
| 2026-05-06 17:07 | 55.47656 | 10.09273 | 37946 ft | 466 kts | 14° |
| 2026-05-06 17:08 | 55.53920 | 10.12603 | 37942 ft | 474 kts | 14° |
| 2026-05-06 17:08 | 55.60252 | 10.15983 | 37938 ft | 477 kts | 14° |
| 2026-05-06 17:09 | 55.66624 | 10.19402 | 37931 ft | 479 kts | 14° |
| 2026-05-06 17:09 | 55.73006 | 10.22843 | 37930 ft | 479 kts | 14° |
| 2026-05-06 17:10 | 55.79384 | 10.26293 | 37933 ft | 478 kts | 14° |
| 2026-05-06 17:10 | 55.85742 | 10.29743 | 37929 ft | 477 kts | 14° |
| 2026-05-06 17:11 | 55.92071 | 10.33190 | 37931 ft | 474 kts | 14° |
| 2026-05-06 17:11 | 55.98371 | 10.36631 | 37927 ft | 472 kts | 14° |
| 2026-05-06 17:12 | 56.04637 | 10.40066 | 37928 ft | 470 kts | 14° |
| 2026-05-06 17:12 | 56.10882 | 10.43500 | 37933 ft | 468 kts | 14° |
| 2026-05-06 17:13 | 56.17103 | 10.46932 | 37938 ft | 468 kts | 14° |
| 2026-05-06 17:13 | 56.23322 | 10.50375 | 37941 ft | 468 kts | 14° |
| 2026-05-06 17:14 | 56.29543 | 10.53831 | 37939 ft | 469 kts | 14° |
| 2026-05-06 17:14 | 56.35740 | 10.57286 | 37943 ft | 470 kts | 14° |
| 2026-05-06 17:15 | 56.42029 | 10.60803 | 37948 ft | 471 kts | 14° |
| 2026-05-06 17:15 | 56.48268 | 10.64305 | 37947 ft | 473 kts | 14° |
| 2026-05-06 17:16 | 56.54565 | 10.67852 | 37943 ft | 474 kts | 14° |
| 2026-05-06 17:16 | 56.60871 | 10.71417 | 37939 ft | 475 kts | 14° |
| 2026-05-06 17:17 | 56.66123 | 10.74395 | 37960 ft | 476 kts | 14° |
| 2026-05-06 17:17 | 56.72469 | 10.78006 | 37951 ft | 477 kts | 14° |
| 2026-05-06 17:18 | 56.78805 | 10.81624 | 37946 ft | 477 kts | 14° |
| 2026-05-06 17:18 | 56.85139 | 10.85253 | 37938 ft | 477 kts | 14° |
| 2026-05-06 17:19 | 56.91469 | 10.88893 | 37969 ft | 477 kts | 14° |
| 2026-05-06 17:19 | 56.97794 | 10.92543 | 37949 ft | 477 kts | 14° |
| 2026-05-06 17:20 | 57.04116 | 10.96204 | 37943 ft | 476 kts | 14° |
| 2026-05-06 17:20 | 57.10387 | 10.99849 | 37945 ft | 476 kts | 14° |
| 2026-05-06 17:21 | 57.16693 | 11.03527 | 37945 ft | 475 kts | 14° |
| 2026-05-06 17:21 | 57.22995 | 11.07216 | 37951 ft | 475 kts | 14° |
| 2026-05-06 17:22 | 57.29294 | 11.10916 | 37947 ft | 475 kts | 14° |
| 2026-05-06 17:22 | 57.35588 | 11.14627 | 37945 ft | 475 kts | 14° |
| 2026-05-06 17:23 | 57.41880 | 11.18350 | 37948 ft | 475 kts | 14° |
| 2026-05-06 17:23 | 57.48172 | 11.22086 | 37949 ft | 475 kts | 14° |
| 2026-05-06 17:24 | 57.54470 | 11.25839 | 37950 ft | 476 kts | 14° |
| 2026-05-06 17:24 | 57.60779 | 11.29613 | 37948 ft | 476 kts | 14° |
| 2026-05-06 17:25 | 57.67085 | 11.33399 | 37947 ft | 476 kts | 14° |
| 2026-05-06 17:25 | 57.73394 | 11.37200 | 37949 ft | 477 kts | 14° |
| 2026-05-06 17:26 | 57.79710 | 11.41020 | 37950 ft | 477 kts | 14° |
| 2026-05-06 17:26 | 57.86086 | 11.44276 | 37936 ft | 470 kts | 1° |
| 2026-05-06 17:27 | 57.92557 | 11.44332 | 37952 ft | 462 kts | 350° |
| 2026-05-06 17:27 | 57.98954 | 11.43204 | 37950 ft | 462 kts | 349° |
| 2026-05-06 17:28 | 58.05387 | 11.42142 | 37550 ft | 470 kts | 350° |
| 2026-05-06 17:28 | 58.08610 | 11.41682 | 37068 ft | 469 kts | 350° |
| 2026-05-06 17:28 | 58.11850 | 11.41245 | 36626 ft | 465 kts | 350° |
| 2026-05-06 17:28 | 58.15054 | 11.40812 | 36240 ft | 460 kts | 350° |
| 2026-05-06 17:29 | 58.18235 | 11.40380 | 35830 ft | 456 kts | 350° |
| 2026-05-06 17:29 | 58.21406 | 11.40046 | 35371 ft | 455 kts | 351° |
| 2026-05-06 17:29 | 58.24553 | 11.39786 | 34973 ft | 452 kts | 351° |
| 2026-05-06 17:29 | 58.27683 | 11.39549 | 34572 ft | 449 kts | 351° |
| 2026-05-06 17:30 | 58.30801 | 11.39309 | 34158 ft | 446 kts | 351° |
| 2026-05-06 17:30 | 58.33892 | 11.39059 | 33732 ft | 444 kts | 350° |
| 2026-05-06 17:30 | 58.36967 | 11.38800 | 33284 ft | 440 kts | 350° |
| 2026-05-06 17:30 | 58.40020 | 11.38537 | 32877 ft | 437 kts | 350° |
| 2026-05-06 17:31 | 58.43043 | 11.38272 | 32480 ft | 433 kts | 349° |
| 2026-05-06 17:31 | 58.46040 | 11.38008 | 32087 ft | 430 kts | 349° |
| 2026-05-06 17:31 | 58.49017 | 11.37744 | 31710 ft | 427 kts | 349° |
| 2026-05-06 17:31 | 58.51975 | 11.37481 | 31338 ft | 424 kts | 349° |
| 2026-05-06 17:32 | 58.54907 | 11.37222 | 31006 ft | 421 kts | 349° |
| 2026-05-06 17:32 | 58.57826 | 11.36961 | 30614 ft | 419 kts | 349° |
| 2026-05-06 17:32 | 58.60733 | 11.36701 | 30241 ft | 417 kts | 348° |
| 2026-05-06 17:32 | 58.63616 | 11.36444 | 29844 ft | 414 kts | 348° |
| 2026-05-06 17:33 | 58.66488 | 11.36188 | 29437 ft | 411 kts | 349° |
| 2026-05-06 17:33 | 58.69339 | 11.35936 | 29028 ft | 408 kts | 349° |
| 2026-05-06 17:33 | 58.72166 | 11.35685 | 28619 ft | 404 kts | 349° |
| 2026-05-06 17:33 | 58.74923 | 11.35441 | 28263 ft | 400 kts | 349° |
| 2026-05-06 17:34 | 58.77693 | 11.35195 | 27890 ft | 397 kts | 349° |
| 2026-05-06 17:34 | 58.80439 | 11.34951 | 27518 ft | 393 kts | 349° |
| 2026-05-06 17:34 | 58.83193 | 11.34703 | 27176 ft | 390 kts | 348° |
| 2026-05-06 17:34 | 58.85894 | 11.34458 | 26792 ft | 387 kts | 348° |
| 2026-05-06 17:35 | 58.88580 | 11.34215 | 26416 ft | 384 kts | 348° |
| 2026-05-06 17:35 | 58.91253 | 11.34133 | 25981 ft | 389 kts | 355° |
| 2026-05-06 17:35 | 58.93927 | 11.34653 | 25610 ft | 390 kts | 359° |
| 2026-05-06 17:36 | 58.99275 | 11.36059 | 24869 ft | 386 kts | 360° |
| 2026-05-06 17:36 | 59.01926 | 11.36758 | 24515 ft | 383 kts | 360° |
| 2026-05-06 17:36 | 59.04566 | 11.37430 | 24160 ft | 380 kts | 359° |
| 2026-05-06 17:36 | 59.07180 | 11.38076 | 23792 ft | 378 kts | 359° |
| 2026-05-06 17:37 | 59.09779 | 11.38705 | 23457 ft | 375 kts | 359° |
| 2026-05-06 17:37 | 59.12362 | 11.39288 | 23121 ft | 370 kts | 357° |
| 2026-05-06 17:37 | 59.14932 | 11.39653 | 22410 ft | 374 kts | 355° |
| 2026-05-06 17:37 | 59.17588 | 11.39921 | 21181 ft | 392 kts | 356° |
| 2026-05-06 17:38 | 59.20349 | 11.40180 | 20382 ft | 399 kts | 356° |
| 2026-05-06 17:38 | 59.23104 | 11.40466 | 19903 ft | 395 kts | 357° |
| 2026-05-06 17:38 | 59.25829 | 11.40774 | 19494 ft | 389 kts | 357° |
| 2026-05-06 17:38 | 59.28515 | 11.41094 | 19046 ft | 385 kts | 358° |
| 2026-05-06 17:39 | 59.31184 | 11.41417 | 18591 ft | 382 kts | 358° |
| 2026-05-06 17:39 | 59.33825 | 11.41742 | 18118 ft | 379 kts | 358° |
| 2026-05-06 17:39 | 59.36440 | 11.42065 | 17616 ft | 376 kts | 358° |
| 2026-05-06 17:39 | 59.39039 | 11.42388 | 17125 ft | 373 kts | 358° |
| 2026-05-06 17:40 | 59.41621 | 11.42709 | 16635 ft | 370 kts | 358° |
| 2026-05-06 17:40 | 59.44144 | 11.43024 | 16185 ft | 366 kts | 358° |
| 2026-05-06 17:40 | 59.46715 | 11.43344 | 15722 ft | 363 kts | 358° |
| 2026-05-06 17:40 | 59.49184 | 11.43653 | 15342 ft | 358 kts | 358° |
| 2026-05-06 17:41 | 59.51659 | 11.43964 | 14976 ft | 354 kts | 358° |
| 2026-05-06 17:41 | 59.54097 | 11.44270 | 14621 ft | 349 kts | 358° |
| 2026-05-06 17:41 | 59.56501 | 11.44574 | 14274 ft | 344 kts | 358° |
| 2026-05-06 17:41 | 59.58867 | 11.44871 | 13935 ft | 340 kts | 359° |
| 2026-05-06 17:42 | 59.61215 | 11.45164 | 13580 ft | 336 kts | 359° |
| 2026-05-06 17:42 | 59.63534 | 11.45455 | 13213 ft | 333 kts | 359° |
| 2026-05-06 17:42 | 59.65830 | 11.45743 | 12863 ft | 329 kts | 359° |
| 2026-05-06 17:42 | 59.68105 | 11.46030 | 12545 ft | 325 kts | 359° |
| 2026-05-06 17:43 | 59.70356 | 11.46314 | 12201 ft | 322 kts | 359° |
| 2026-05-06 17:43 | 59.72582 | 11.46595 | 11867 ft | 319 kts | 360° |
| 2026-05-06 17:43 | 59.74788 | 11.46874 | 11543 ft | 316 kts | 360° |
| 2026-05-06 17:43 | 59.76976 | 11.47150 | 11213 ft | 314 kts | 0° |
| 2026-05-06 17:44 | 59.79144 | 11.47425 | 10894 ft | 311 kts | 0° |
| 2026-05-06 17:44 | 59.81295 | 11.47699 | 10577 ft | 308 kts | 0° |
| 2026-05-06 17:44 | 59.83430 | 11.47970 | 10259 ft | 306 kts | 1° |
| 2026-05-06 17:44 | 59.85542 | 11.48240 | 10059 ft | 300 kts | 1° |
| 2026-05-06 17:45 | 59.87590 | 11.48504 | 9907 ft | 293 kts | 1° |
| 2026-05-06 17:45 | 59.89617 | 11.48763 | 9593 ft | 291 kts | 1° |
| 2026-05-06 17:45 | 59.91630 | 11.49019 | 9286 ft | 289 kts | 1° |
| 2026-05-06 17:45 | 59.93603 | 11.49272 | 9001 ft | 286 kts | 1° |
| 2026-05-06 17:46 | 59.95608 | 11.49529 | 8711 ft | 284 kts | 1° |
| 2026-05-06 17:46 | 59.97571 | 11.49780 | 8433 ft | 282 kts | 2° |
| 2026-05-06 17:46 | 59.99492 | 11.50028 | 8160 ft | 279 kts | 2° |
| 2026-05-06 17:46 | 60.01421 | 11.50277 | 7891 ft | 276 kts | 2° |
| 2026-05-06 17:47 | 60.03337 | 11.50524 | 7606 ft | 274 kts | 2° |
| 2026-05-06 17:47 | 60.05219 | 11.50767 | 7337 ft | 272 kts | 1° |
| 2026-05-06 17:47 | 60.07103 | 11.51011 | 7050 ft | 270 kts | 1° |
| 2026-05-06 17:47 | 60.08970 | 11.51252 | 6774 ft | 268 kts | 2° |
| 2026-05-06 17:48 | 60.10814 | 11.51491 | 6574 ft | 263 kts | 1° |
| 2026-05-06 17:48 | 60.12632 | 11.51727 | 6312 ft | 262 kts | 1° |
| 2026-05-06 17:48 | 60.14446 | 11.51962 | 6044 ft | 260 kts | 1° |
| 2026-05-06 17:48 | 60.16248 | 11.52196 | 5763 ft | 259 kts | 2° |
| 2026-05-06 17:49 | 60.18038 | 11.52430 | 5501 ft | 257 kts | 2° |
| 2026-05-06 17:49 | 60.19802 | 11.52660 | 5370 ft | 250 kts | 1° |
| 2026-05-06 17:49 | 60.21514 | 11.52885 | 5250 ft | 243 kts | 2° |
| 2026-05-06 17:49 | 60.23167 | 11.53034 | 5145 ft | 234 kts | 353° |
| 2026-05-06 17:50 | 60.24619 | 11.51925 | 5027 ft | 220 kts | 318° |
| 2026-05-06 17:50 | 60.25550 | 11.49578 | 4841 ft | 212 kts | 296° |
| 2026-05-06 17:50 | 60.26016 | 11.46776 | 4613 ft | 213 kts | 282° |
| 2026-05-06 17:50 | 60.26340 | 11.43874 | 4366 ft | 212 kts | 282° |
| 2026-05-06 17:51 | 60.26662 | 11.41021 | 4128 ft | 211 kts | 282° |
| 2026-05-06 17:51 | 60.26984 | 11.38167 | 3976 ft | 207 kts | 282° |
| 2026-05-06 17:51 | 60.27313 | 11.35287 | 3731 ft | 212 kts | 282° |
| 2026-05-06 17:51 | 60.27643 | 11.32395 | 3479 ft | 213 kts | 282° |
| 2026-05-06 17:52 | 60.27830 | 11.29531 | 3206 ft | 206 kts | 271° |
| 2026-05-06 17:52 | 60.27750 | 11.26713 | 2879 ft | 194 kts | 261° |
| 2026-05-06 17:52 | 60.27412 | 11.24194 | 2609 ft | 184 kts | 250° |
| 2026-05-06 17:52 | 60.26900 | 11.21911 | 2402 ft | 173 kts | 245° |
| 2026-05-06 17:53 | 60.26393 | 11.19827 | 2191 ft | 158 kts | 244° |
| 2026-05-06 17:53 | 60.25868 | 11.17851 | 1979 ft | 160 kts | 239° |
| 2026-05-06 17:53 | 60.25166 | 11.16159 | 1747 ft | 154 kts | 225° |
| 2026-05-06 17:53 | 60.24324 | 11.14943 | 1561 ft | 148 kts | 213° |
| 2026-05-06 17:54 | 60.23393 | 11.14114 | 1357 ft | 147 kts | 198° |
| 2026-05-06 17:54 | 60.22407 | 11.13566 | 1164 ft | 149 kts | 198° |
| 2026-05-06 17:54 | 60.21407 | 11.12992 | 989 ft | 150 kts | 198° |
| 2026-05-06 17:54 | 60.20415 | 11.12416 | 801 ft | 147 kts | 198° |
| 2026-05-06 17:55 | 60.19474 | 11.11879 | 680 ft | 134 kts | 197° |
| 2026-05-06 17:55 | 60.18775 | 11.11472 | 681 ft | 74 kts | 195° |
| 2026-05-06 17:55 | 60.18496 | 11.11248 | 680 ft | 16 kts | 215° |
| 2026-05-06 17:55 | 60.18444 | 11.11145 | 682 ft | 2 kts | 241° |
| 2026-05-06 17:56 | 60.18439 | 11.11115 | 682 ft | 3 kts | 253° |
| 2026-05-06 17:56 | 60.18437 | 11.11055 | 681 ft | 6 kts | 278° |
| 2026-05-06 17:56 | 60.18449 | 11.10964 | 680 ft | 8 kts | 285° |
| 2026-05-06 17:56 | 60.18465 | 11.10854 | 680 ft | 9 kts | 286° |
| 2026-05-06 17:57 | 60.18509 | 11.10764 | 680 ft | 10 kts | 354° |
| 2026-05-06 17:57 | 60.18576 | 11.10794 | 681 ft | 10 kts | 16° |
| 2026-05-06 17:57 | 60.18648 | 11.10835 | 681 ft | 12 kts | 15° |
| 2026-05-06 17:57 | 60.18734 | 11.10884 | 682 ft | 13 kts | 15° |
| 2026-05-06 17:58 | 60.18827 | 11.10937 | 682 ft | 14 kts | 16° |
| 2026-05-06 17:58 | 60.18922 | 11.10993 | 682 ft | 14 kts | 17° |
| 2026-05-06 17:58 | 60.19018 | 11.11049 | 682 ft | 14 kts | 16° |
| 2026-05-06 17:58 | 60.19106 | 11.11100 | 683 ft | 12 kts | 16° |
| 2026-05-06 17:59 | 60.19166 | 11.11074 | 682 ft | 9 kts | 307° |
| 2026-05-06 17:59 | 60.19189 | 11.10953 | 684 ft | 9 kts | 285° |
| 2026-05-06 17:59 | 60.19207 | 11.10833 | 680 ft | 9 kts | 286° |
| 2026-05-06 17:59 | 60.19224 | 11.10716 | 681 ft | 8 kts | 286° |
| 2026-05-06 18:00 | 60.19240 | 11.10605 | 682 ft | 8 kts | 287° |
| 2026-05-06 18:00 | 60.19256 | 11.10498 | 682 ft | 8 kts | 285° |
| 2026-05-06 18:00 | 60.19276 | 11.10403 | 682 ft | 4 kts | 322° |
| 2026-05-06 18:00 | 60.19305 | 11.10409 | 684 ft | 4 kts | 15° |
| 2026-05-06 18:01 | 60.19315 | 11.10415 | 684 ft | 0 kts | 15° |
| 2026-05-06 18:01 | 60.19316 | 11.10415 | 684 ft | 1 kts | 16° |
| 2026-05-06 18:01 | 60.19321 | 11.10418 | 680 ft | 0 kts | 15° |